Time;durP1;ratioP1;P1;durP2;ratioP2;P2;SDS_P1;SDS_P2;PMS_P1;PMS_P2;Temp;Humidity;BMP_temperature;BMP_pressure;BME280_temperature;BME280_humidity;BME280_pressure;Samples;Min_cycle;Max_cycle;Signal;HPM_P1;HPM_P2
2023/02/13 00:02:14;;;;;;;82.97;54.65;;;6.70;99.90;;;;;;5089663;28;20078;-53
2023/02/13 00:04:41;;;;;;;86.22;53.25;;;6.70;99.90;;;;;;5091969;28;20059;-52
2023/02/13 00:07:10;;;;;;;65.28;46.05;;;6.80;99.90;;;;;;5091625;28;20028;-53
2023/02/13 00:09:36;;;;;;;51.45;38.40;;;6.90;99.90;;;;;;5091814;28;20252;-52
2023/02/13 00:12:02;;;;;;;52.35;38.55;;;6.80;99.90;;;;;;5092016;28;20028;-53
2023/02/13 00:14:28;;;;;;;56.80;40.35;;;6.70;99.90;;;;;;5072832;28;20395;-53
2023/02/13 00:16:54;;;;;;;50.08;37.17;;;6.70;99.90;;;;;;5091455;28;20092;-54
2023/02/13 00:19:20;;;;;;;51.60;36.47;;;6.80;99.90;;;;;;5092083;28;20032;-53
2023/02/13 00:21:46;;;;;;;51.13;34.92;;;;;;;;;;5091741;28;20024;-53
2023/02/13 00:24:12;;;;;;;53.05;33.80;;;;;;;;;;5091487;28;20024;-52
2023/02/13 00:26:38;;;;;;;133.00;70.53;;;6.50;99.90;;;;;;5092151;28;20082;-52
2023/02/13 00:29:05;;;;;;;134.43;67.60;;;6.70;99.90;;;;;;5091642;28;20020;-53
2023/02/13 00:31:30;;;;;;;141.50;76.18;;;6.80;99.90;;;;;;5090538;28;20036;-52
2023/02/13 00:33:56;;;;;;;144.90;74.90;;;6.70;99.90;;;;;;5095039;28;20032;-52
2023/02/13 00:36:23;;;;;;;126.43;67.38;;;6.70;99.90;;;;;;5095209;28;20020;-53
2023/02/13 00:38:49;;;;;;;128.27;66.35;;;6.50;99.90;;;;;;5095293;28;20050;-52
2023/02/13 00:41:17;;;;;;;113.45;64.05;;;6.30;99.90;;;;;;5092953;28;20032;-53
2023/02/13 00:43:43;;;;;;;90.18;55.80;;;6.40;99.90;;;;;;5094879;28;20425;-53
2023/02/13 00:46:09;;;;;;;99.13;58.58;;;6.40;99.90;;;;;;5095693;28;20056;-53
2023/02/13 00:48:35;;;;;;;103.75;59.45;;;6.30;99.90;;;;;;5094894;28;20535;-53
2023/02/13 00:51:03;;;;;;;84.93;53.28;;;6.30;99.90;;;;;;5094900;28;20486;-53
2023/02/13 00:53:29;;;;;;;108.80;64.28;;;6.20;99.90;;;;;;5055337;28;20395;-53
2023/02/13 00:55:55;;;;;;;118.32;66.80;;;6.30;99.90;;;;;;5072359;28;20032;-54
2023/02/13 00:58:22;;;;;;;105.30;64.85;;;6.10;99.90;;;;;;5055249;28;20071;-53
2023/02/13 01:00:48;;;;;;;101.60;61.83;;;;;;;;;;5072228;28;20040;-53
2023/02/13 01:03:15;;;;;;;84.65;54.95;;;5.80;99.90;;;;;;5072058;28;20032;-53
2023/02/13 01:05:42;;;;;;;106.55;67.00;;;6.10;99.90;;;;;;5071858;28;20137;-52
2023/02/13 01:08:09;;;;;;;107.07;66.38;;;6.20;99.90;;;;;;5072047;28;20094;-53
2023/02/13 01:10:37;;;;;;;96.32;59.90;;;6.20;99.90;;;;;;5072002;28;20021;-52
2023/02/13 01:13:02;;;;;;;97.30;63.40;;;6.20;99.90;;;;;;5071928;28;20514;-52
2023/02/13 01:15:28;;;;;;;96.43;59.65;;;5.80;99.90;;;;;;5038312;28;20037;-52
2023/02/13 01:17:56;;;;;;;95.22;59.33;;;5.90;99.90;;;;;;5071869;28;20519;-52
2023/02/13 01:20:22;;;;;;;91.35;57.65;;;5.70;99.90;;;;;;5071701;28;20055;-53
2023/02/13 01:22:48;;;;;;;91.13;59.10;;;5.70;99.90;;;;;;5071722;28;20127;-52
2023/02/13 01:25:14;;;;;;;97.25;60.70;;;5.80;99.90;;;;;;5025408;28;20052;-53
2023/02/13 01:27:40;;;;;;;72.53;46.15;;;5.50;99.90;;;;;;5092398;28;20119;-52
2023/02/13 01:30:12;;;;;;;73.32;46.45;;;5.00;99.90;;;;;;5095057;28;20410;-53
2023/02/13 01:32:38;;;;;;;;;;;5.00;99.90;;;;;;5097459;28;20421;-53
2023/02/13 01:35:04;;;;;;;55.10;37.05;;;4.90;99.90;;;;;;5075999;28;20002;-53
2023/02/13 01:37:30;;;;;;;54.08;37.63;;;5.10;99.90;;;;;;5094884;28;20036;-52
2023/02/13 01:39:56;;;;;;;52.38;34.35;;;5.10;99.90;;;;;;5094280;28;20047;-53
2023/02/13 01:42:25;;;;;;;62.08;37.83;;;4.70;99.90;;;;;;5074968;28;20040;-53
2023/02/13 01:45:01;;;;;;;55.70;38.45;;;4.70;99.90;;;;;;5094227;28;20036;-53
2023/02/13 01:47:40;;;;;;;43.30;30.10;;;4.80;99.90;;;;;;5093827;28;20028;-53
2023/02/13 01:50:09;;;;;;;59.92;39.38;;;4.30;99.90;;;;;;5094097;28;20028;-55
2023/02/13 01:52:39;;;;;;;39.17;26.08;;;4.00;99.90;;;;;;5094857;28;20027;-53
2023/02/13 01:55:07;;;;;;;43.42;28.67;;;3.80;99.90;;;;;;5093945;28;20137;-53
2023/02/13 01:57:39;;;;;;;42.70;29.77;;;3.60;99.90;;;;;;5094102;28;20024;-53
2023/02/13 02:00:11;;;;;;;42.47;29.15;;;3.40;99.90;;;;;;5094455;28;20028;-53
2023/02/13 02:02:38;;;;;;;;;;;3.50;99.90;;;;;;5094411;28;20042;-52
2023/02/13 02:05:06;;;;;;;41.78;28.23;;;3.80;99.90;;;;;;5093757;28;19916;-52
2023/02/13 02:07:32;;;;;;;45.97;30.70;;;4.10;99.90;;;;;;5093867;28;20129;-53
2023/02/13 02:10:07;;;;;;;43.10;28.80;;;4.30;99.90;;;;;;5094178;28;20043;-54
2023/02/13 02:12:41;;;;;;;48.63;31.70;;;4.50;99.90;;;;;;5026412;28;20039;-53
2023/02/13 02:15:07;;;;;;;46.15;31.80;;;4.60;99.90;;;;;;5096173;28;20048;-54
2023/02/13 02:17:33;;;;;;;58.17;35.90;;;4.70;99.90;;;;;;5063900;28;20043;-53
2023/02/13 02:20:20;;;;;;;55.38;36.35;;;4.40;99.90;;;;;;5080350;28;20478;-57
2023/02/13 02:23:17;;;;;;;55.17;37.60;;;4.40;99.90;;;;;;5076439;28;20036;-53
2023/02/13 02:26:10;;;;;;;57.35;35.53;;;4.00;99.90;;;;;;5095715;28;20040;-63
2023/02/13 02:28:53;;;;;;;60.45;38.60;;;4.10;99.90;;;;;;5096721;28;20046;-54
2023/02/13 02:31:40;;;;;;;65.22;41.88;;;4.30;99.90;;;;;;5075052;28;20055;-53
2023/02/13 02:34:13;;;;;;;60.42;40.15;;;4.40;99.90;;;;;;5092692;28;20044;-53
2023/02/13 02:36:47;;;;;;;58.42;36.25;;;4.40;99.90;;;;;;5092863;28;20024;-53
2023/02/13 02:39:37;;;;;;;78.57;46.25;;;4.30;99.90;;;;;;5092782;28;20032;-52
2023/02/13 02:42:14;;;;;;;54.40;37.05;;;4.60;99.90;;;;;;5059365;28;20036;-52
2023/02/13 02:45:04;;;;;;;47.60;32.78;;;4.40;99.90;;;;;;5092635;28;20038;-52
2023/02/13 02:51:36;;;;;;;41.83;29.15;;;4.10;99.90;;;;;;5010050;28;20611;-53
2023/02/13 02:57:12;;;;;;;43.78;30.00;;;3.60;99.90;;;;;;5010611;28;20037;-53
2023/02/13 03:08:10;;;;;;;31.15;20.65;;;;;;;;;;5010418;28;20121;-52
2023/02/13 03:13:48;;;;;;;39.95;26.15;;;2.50;99.90;;;;;;5010220;28;20116;-52
2023/02/13 03:22:19;;;;;;;39.05;26.13;;;2.80;99.90;;;;;;4951806;29;20038;-52
2023/02/13 03:24:57;;;;;;;38.42;26.77;;;2.80;99.90;;;;;;4978075;28;20129;-52
2023/02/13 03:30:25;;;;;;;41.17;27.45;;;3.50;99.90;;;;;;5010171;28;20054;-53
2023/02/13 03:33:06;;;;;;;55.33;36.50;;;3.80;99.90;;;;;;5009935;28;20510;-53
2023/02/13 03:38:50;;;;;;;82.32;46.90;;;3.40;99.90;;;;;;5010444;28;20080;-52
2023/02/13 03:41:40;;;;;;;72.43;46.78;;;3.50;99.90;;;;;;5009841;28;20042;-52
2023/02/13 03:44:29;;;;;;;75.45;48.67;;;3.60;99.90;;;;;;5009639;28;20030;-53
2023/02/13 03:46:58;;;;;;;81.25;48.63;;;3.80;99.90;;;;;;5009541;28;20034;-53
2023/02/13 03:52:31;;;;;;;76.18;49.60;;;3.70;99.90;;;;;;5020297;28;20118;-53
2023/02/13 04:00:45;;;;;;;116.55;73.35;;;3.70;99.90;;;;;;5072151;28;20039;-52
2023/02/13 04:03:23;;;;;;;97.60;62.72;;;3.70;99.90;;;;;;5071518;28;20109;-53
2023/02/13 04:06:01;;;;;;;89.55;56.28;;;3.80;99.90;;;;;;5084984;28;20036;-53
2023/02/13 04:08:27;;;;;;;74.82;48.35;;;3.90;99.90;;;;;;5076572;28;20040;-53
2023/02/13 04:11:08;;;;;;;76.95;49.30;;;3.70;99.90;;;;;;5095994;28;20580;-53
2023/02/13 04:13:41;;;;;;;76.28;49.78;;;3.60;99.90;;;;;;5095943;28;20402;-53
2023/02/13 04:16:16;;;;;;;71.93;47.25;;;3.50;99.90;;;;;;5095476;28;20028;-53
2023/02/13 04:18:43;;;;;;;74.25;48.30;;;3.40;99.90;;;;;;5095682;28;20028;-53
2023/02/13 04:21:08;;;;;;;63.55;39.88;;;3.10;99.90;;;;;;5095602;28;20443;-53
2023/02/13 04:23:35;;;;;;;37.78;26.58;;;2.80;99.90;;;;;;5095143;28;20059;-53
2023/02/13 04:26:10;;;;;;;39.50;26.33;;;2.80;99.90;;;;;;5095693;28;20028;-53
2023/02/13 04:28:36;;;;;;;40.97;26.15;;;2.70;99.90;;;;;;5095463;28;20028;-53
2023/02/13 04:31:02;;;;;;;33.38;23.70;;;2.80;99.90;;;;;;5095754;28;20028;-53
2023/02/13 04:33:27;;;;;;;36.35;24.67;;;2.70;99.90;;;;;;5095216;28;20418;-53
2023/02/13 04:35:53;;;;;;;34.17;24.63;;;2.70;99.90;;;;;;5095210;28;20089;-53
2023/02/13 04:38:19;;;;;;;40.47;26.42;;;2.70;99.90;;;;;;5095409;28;20483;-53
2023/02/13 04:40:45;;;;;;;38.63;26.02;;;2.70;99.90;;;;;;5076254;28;20043;-53
2023/02/13 04:43:10;;;;;;;35.22;25.15;;;2.80;99.90;;;;;;5072016;28;20044;-53
2023/02/13 04:45:36;;;;;;;36.90;25.17;;;2.70;99.90;;;;;;5072562;28;20084;-53
2023/02/13 04:48:02;;;;;;;36.55;23.58;;;2.40;99.90;;;;;;5038762;28;20099;-53
2023/02/13 04:50:28;;;;;;;38.15;25.58;;;2.10;99.90;;;;;;5072435;28;20032;-53
2023/02/13 04:52:55;;;;;;;34.78;24.25;;;2.10;99.90;;;;;;5072460;28;20032;-53
2023/02/13 04:55:25;;;;;;;31.58;20.27;;;2.00;99.90;;;;;;5072223;28;20060;-53
2023/02/13 04:57:52;;;;;;;31.20;21.15;;;1.80;99.90;;;;;;5072325;28;20082;-52
2023/02/13 05:00:20;;;;;;;34.08;21.52;;;1.70;99.90;;;;;;5071673;28;20656;-53
2023/02/13 05:02:45;;;;;;;33.13;23.13;;;1.70;99.90;;;;;;5004863;28;20072;-53
2023/02/13 05:05:11;;;;;;;34.83;23.45;;;1.60;99.90;;;;;;5054516;28;20079;-52
2023/02/13 05:07:37;;;;;;;38.35;25.20;;;1.70;99.90;;;;;;5071700;28;20024;-53
2023/02/13 05:10:04;;;;;;;35.63;21.40;;;1.90;99.90;;;;;;5071473;28;20078;-52
2023/02/13 05:12:29;;;;;;;38.83;24.52;;;1.70;99.90;;;;;;5005487;28;20036;-52
2023/02/13 05:14:55;;;;;;;32.85;21.48;;;1.60;99.90;;;;;;5082988;28;20046;-53
2023/02/13 05:17:21;;;;;;;32.50;20.58;;;1.40;99.90;;;;;;5094334;28;20067;-53
2023/02/13 05:19:46;;;;;;;38.33;24.50;;;1.30;99.90;;;;;;5079467;28;20032;-52
2023/02/13 05:24:56;;;;;;;31.30;19.35;;;1.50;99.90;;;;;;5073981;28;20048;-54
2023/02/13 05:27:22;;;;;;;30.83;19.33;;;1.50;99.90;;;;;;5074322;28;20025;-53
2023/02/13 05:29:48;;;;;;;34.38;23.10;;;1.60;99.90;;;;;;5072016;28;20427;-53
2023/02/13 05:32:14;;;;;;;35.60;23.65;;;1.60;99.90;;;;;;5090654;28;20111;-53
2023/02/13 05:34:39;;;;;;;44.03;28.02;;;1.80;99.90;;;;;;5093401;28;20051;-53
2023/02/13 05:37:05;;;;;;;46.88;30.38;;;2.30;99.90;;;;;;5093134;28;20107;-52
2023/02/13 05:39:31;;;;;;;49.17;33.78;;;2.60;99.90;;;;;;5092981;28;20055;-52
2023/02/13 05:41:56;;;;;;;44.90;31.50;;;3.00;99.90;;;;;;5088642;28;20020;-53
2023/02/13 05:44:22;;;;;;;54.08;36.33;;;3.10;99.90;;;;;;5071740;28;20044;-53
2023/02/13 05:46:48;;;;;;;50.33;33.72;;;3.20;99.90;;;;;;5093651;28;20479;-53
2023/02/13 05:49:14;;;;;;;46.20;29.80;;;3.20;99.90;;;;;;5090292;28;20089;-53
2023/02/13 05:51:41;;;;;;;43.53;29.52;;;3.30;99.90;;;;;;5093475;28;20031;-53
2023/02/13 05:54:07;;;;;;;43.50;27.92;;;3.50;99.90;;;;;;5094064;28;20032;-53
2023/02/13 05:56:33;;;;;;;45.38;29.80;;;3.50;99.90;;;;;;5095165;28;20085;-53
2023/02/13 05:58:59;;;;;;;48.65;31.42;;;3.50;99.90;;;;;;5093026;28;20032;-53
2023/02/13 06:01:25;;;;;;;41.97;27.42;;;3.50;99.90;;;;;;5090911;28;20530;-53
2023/02/13 06:03:51;;;;;;;45.53;31.80;;;3.60;99.90;;;;;;5083223;28;20126;-53
2023/02/13 06:06:17;;;;;;;61.35;42.42;;;3.50;99.90;;;;;;5063017;28;20072;-53
2023/02/13 06:08:43;;;;;;;61.97;44.65;;;3.50;99.90;;;;;;5080599;28;20036;-53
2023/02/13 06:11:09;;;;;;;68.70;49.20;;;3.70;99.90;;;;;;5081290;28;20603;-53
2023/02/13 06:13:34;;;;;;;64.72;45.45;;;3.60;99.90;;;;;;5082845;28;20075;-53
2023/02/13 06:16:00;;;;;;;81.93;50.75;;;3.70;99.90;;;;;;5084239;28;20016;-53
2023/02/13 06:18:26;;;;;;;72.18;50.85;;;3.70;99.90;;;;;;5063472;28;20032;-53
2023/02/13 06:20:52;;;;;;;63.53;42.25;;;4.70;99.90;;;;;;5063988;28;20387;-53
2023/02/13 06:23:17;;;;;;;77.13;50.35;;;5.50;99.90;;;;;;5082863;28;20028;-53
2023/02/13 06:25:44;;;;;;;65.50;45.50;;;;;;;;;;5081369;28;20430;-52
2023/02/13 06:28:09;;;;;;;63.95;42.83;;;8.30;99.90;;;;;;5085018;28;20111;-52
2023/02/13 06:30:35;;;;;;;61.72;38.60;;;;;;;;;;5075009;28;20052;-53
2023/02/13 06:33:01;;;;;;;57.65;37.58;;;10.30;99.90;;;;;;5062737;28;20074;-53
2023/02/13 06:35:27;;;;;;;66.20;42.65;;;11.10;99.90;;;;;;5072510;28;20056;-53
2023/02/13 06:37:53;;;;;;;59.72;40.65;;;11.90;99.90;;;;;;5072839;28;20028;-53
2023/02/13 06:40:19;;;;;;;62.13;41.13;;;12.60;99.90;;;;;;5075915;28;20031;-53
2023/02/13 06:42:45;;;;;;;57.88;40.80;;;13.30;99.90;;;;;;5040389;28;20035;-53
2023/02/13 06:45:12;;;;;;;62.90;42.70;;;13.80;99.20;;;;;;5088577;28;20127;-53
2023/02/13 06:47:45;;;;;;;64.47;42.67;;;14.30;98.20;;;;;;5084641;28;20540;-53
2023/02/13 06:50:12;;;;;;;53.25;38.67;;;14.90;97.00;;;;;;5088725;28;20032;-53
2023/02/13 06:52:38;;;;;;;59.17;42.58;;;15.30;96.10;;;;;;5083498;28;20024;-53
2023/02/13 06:55:04;;;;;;;59.25;42.25;;;15.80;94.70;;;;;;5077390;28;20515;-53
2023/02/13 06:57:32;;;;;;;105.20;71.40;;;;;;;;;;5072487;28;20051;-54
2023/02/13 06:59:59;;;;;;;83.78;58.55;;;16.20;92.20;;;;;;5072365;28;20027;-53
2023/02/13 07:02:25;;;;;;;98.57;64.22;;;;;;;;;;5072547;28;20028;-53
2023/02/13 07:04:51;;;;;;;92.32;60.90;;;17.40;99.90;;;;;;5072518;28;20064;-53
2023/02/13 07:07:17;;;;;;;116.15;82.88;;;16.80;91.10;;;;;;5072197;28;20090;-53
2023/02/13 07:09:43;;;;;;;61.83;46.80;;;;;;;;;;5072073;28;20028;-53
2023/02/13 07:12:11;;;;;;;43.80;33.05;;;18.00;99.90;;;;;;5058680;28;20081;-54
2023/02/13 07:14:38;;;;;;;36.67;28.80;;;;;;;;;;5091281;28;20028;-54
2023/02/13 07:17:04;;;;;;;35.53;26.73;;;18.60;98.10;;;;;;5092204;28;20426;-55
2023/02/13 07:19:31;;;;;;;28.83;23.23;;;18.80;85.60;;;;;;5090455;28;20035;-54
2023/02/13 07:21:57;;;;;;;32.30;25.60;;;19.20;84.40;;;;;;5069507;28;20472;-53
2023/02/13 07:24:23;;;;;;;31.08;24.75;;;;;;;;;;5069113;28;20064;-54
2023/02/13 07:26:48;;;;;;;34.97;27.15;;;19.60;99.90;;;;;;5067726;28;20385;-52
2023/02/13 07:29:14;;;;;;;31.95;26.10;;;19.60;82.70;;;;;;5064767;28;20480;-53
2023/02/13 07:31:40;;;;;;;34.80;29.15;;;19.80;82.70;;;;;;5049617;28;20064;-52
2023/02/13 07:34:06;;;;;;;34.67;28.83;;;19.30;83.00;;;;;;5049429;28;20132;-52
2023/02/13 07:36:32;;;;;;;35.38;29.60;;;19.70;82.50;;;;;;5049683;28;20107;-52
2023/02/13 07:38:57;;;;;;;36.80;29.30;;;19.80;82.70;;;;;;5058004;28;20028;-52
2023/02/13 08:00:26;;;;;;;55.88;46.50;;;;;;;;;;5171966;27;20926;-51
2023/02/13 08:02:52;;;;;;;55.35;43.83;;;;;;;;;;5169366;27;20127;-52
2023/02/13 08:05:18;;;;;;;56.55;47.25;;;;;;;;;;5169631;27;20062;-52
2023/02/13 08:07:44;;;;;;;51.65;44.50;;;24.90;76.80;;;;;;5167021;27;20021;-53
2023/02/13 08:12:56;;;;;;;51.95;42.17;;;25.50;73.70;;;;;;5167388;27;20029;-49
2023/02/13 08:15:22;;;;;;;50.72;42.15;;;25.00;74.20;;;;;;5161286;27;20022;-50
2023/02/13 08:17:48;;;;;;;45.83;40.03;;;24.60;74.10;;;;;;5166872;27;20019;-49
2023/02/13 08:20:14;;;;;;;53.85;46.53;;;24.50;74.20;;;;;;5156572;27;20068;-50
2023/02/13 08:22:40;;;;;;;70.75;59.88;;;24.30;73.40;;;;;;5131079;27;20434;-50
2023/02/13 08:25:06;;;;;;;45.63;39.97;;;24.00;74.10;;;;;;5141798;27;20038;-49
2023/02/13 08:27:32;;;;;;;42.10;37.58;;;24.20;73.80;;;;;;5171376;27;20461;-50
2023/02/13 08:29:58;;;;;;;67.35;54.20;;;24.60;74.00;;;;;;5171181;27;20040;-49
2023/02/13 08:32:25;;;;;;;126.40;93.88;;;23.40;73.10;;;;;;5171576;27;20018;-49
2023/02/13 08:34:51;;;;;;;403.35;308.25;;;22.60;74.70;;;;;;5171022;27;20454;-51
2023/02/13 08:37:17;;;;;;;238.10;175.52;;;22.40;75.20;;;;;;5168499;27;20031;-50
2023/02/13 08:39:43;;;;;;;57.35;47.92;;;20.40;76.90;;;;;;5169271;27;20057;-50
2023/02/13 08:42:09;;;;;;;51.50;43.97;;;18.80;78.00;;;;;;5171280;27;20023;-50
2023/02/13 08:44:36;;;;;;;55.75;46.05;;;17.40;79.90;;;;;;5170907;27;20665;-50
2023/02/13 08:47:02;;;;;;;49.58;42.85;;;17.10;81.60;;;;;;5170878;27;20457;-50
2023/02/13 08:49:32;;;;;;;58.58;49.03;;;16.70;82.30;;;;;;5170719;27;20079;-51
2023/02/13 08:51:58;;;;;;;58.30;47.53;;;17.10;82.60;;;;;;5165256;27;20030;-46
2023/02/13 08:54:24;;;;;;;52.40;42.15;;;17.40;82.00;;;;;;5167941;27;20434;-44
2023/02/13 08:56:50;;;;;;;59.78;47.97;;;17.20;82.10;;;;;;5169949;27;20031;-48
2023/02/13 08:59:16;;;;;;;63.15;50.65;;;18.90;80.80;;;;;;5148324;27;20094;-51
2023/02/13 09:01:41;;;;;;;78.63;62.20;;;19.50;81.00;;;;;;5151417;27;20026;-44
2023/02/13 09:04:07;;;;;;;59.38;52.72;;;19.70;81.10;;;;;;5119827;27;20046;-46
2023/02/13 09:06:33;;;;;;;62.58;49.65;;;21.20;79.00;;;;;;5156663;27;20106;-48
2023/02/13 09:08:59;;;;;;;57.58;47.35;;;19.30;79.20;;;;;;5102426;27;20378;-48
2023/02/13 09:11:24;;;;;;;64.72;52.40;;;20.60;78.40;;;;;;5136875;27;20031;-48
2023/02/13 09:13:54;;;;;;;65.25;52.25;;;;;;;;;;5137047;27;20481;-46
2023/02/13 09:16:20;;;;;;;52.05;42.88;;;21.60;76.80;;;;;;5156252;27;20064;-47
2023/02/13 09:18:47;;;;;;;66.35;49.58;;;20.30;78.20;;;;;;5156471;27;20026;-46
2023/02/13 09:21:13;;;;;;;59.05;47.33;;;20.00;79.10;;;;;;5156579;27;20098;-46
2023/02/13 09:23:40;;;;;;;53.63;45.75;;;19.00;80.00;;;;;;5136811;27;20035;-46
2023/02/13 09:26:13;;;;;;;58.85;46.72;;;18.80;81.10;;;;;;5156239;27;20110;-47
2023/02/13 09:28:40;;;;;;;51.00;41.38;;;18.40;80.90;;;;;;5156009;27;20035;-51
2023/02/13 09:31:06;;;;;;;50.38;41.05;;;18.40;80.90;;;;;;5156180;27;20351;-51
2023/02/13 09:33:32;;;;;;;42.90;35.45;;;18.60;80.60;;;;;;5147407;27;20039;-49
2023/02/13 09:35:58;;;;;;;41.00;32.60;;;17.20;82.30;;;;;;5135187;27;20110;-48
2023/02/13 09:38:23;;;;;;;41.83;35.50;;;15.80;84.10;;;;;;5135331;27;20114;-49
2023/02/13 09:41:20;;;;;;;58.38;44.70;;;15.00;86.80;;;;;;5135468;27;20047;-48
2023/02/13 09:43:57;;;;;;;69.07;50.40;;;14.40;88.60;;;;;;5135231;27;20038;-53
2023/02/13 09:46:36;;;;;;;58.38;47.75;;;14.50;89.20;;;;;;5143391;27;20027;-44
2023/02/13 09:49:14;;;;;;;53.72;38.97;;;13.50;90.60;;;;;;5115521;27;20040;-47
2023/02/13 09:51:42;;;;;;;35.45;26.63;;;13.20;90.90;;;;;;5135219;27;20402;-46
2023/02/13 09:54:14;;;;;;;36.47;27.83;;;12.80;90.90;;;;;;5135645;27;20023;-48
2023/02/13 09:56:59;;;;;;;35.15;26.48;;;12.30;91.70;;;;;;5135040;27;20114;-48
2023/02/13 09:59:43;;;;;;;31.40;23.50;;;11.70;92.40;;;;;;5134679;27;20039;-48
2023/02/13 10:02:37;;;;;;;35.83;26.25;;;11.20;93.60;;;;;;5134663;27;20034;-53
2023/02/13 10:05:27;;;;;;;44.53;34.53;;;10.90;94.20;;;;;;5134842;27;20023;-58
2023/02/13 10:08:11;;;;;;;50.42;37.90;;;11.60;94.30;;;;;;5134604;27;20019;-58
2023/02/13 10:10:55;;;;;;;60.05;43.63;;;11.80;94.20;;;;;;5134709;27;20538;-55
2023/02/13 10:13:32;;;;;;;62.10;42.28;;;11.90;94.10;;;;;;5114686;27;20031;-56
2023/02/13 10:16:13;;;;;;;39.90;29.52;;;11.70;94.40;;;;;;5134793;27;20055;-53
2023/02/13 10:19:00;;;;;;;122.82;76.07;;;12.10;94.20;;;;;;5134517;27;20034;-51
2023/02/13 10:21:32;;;;;;;38.92;26.58;;;12.30;94.20;;;;;;5134467;27;20487;-45
2023/02/13 10:24:11;;;;;;;49.05;33.85;;;12.10;94.20;;;;;;5134566;27;20106;-50
2023/02/13 10:26:41;;;;;;;63.40;46.63;;;13.30;94.20;;;;;;5134349;27;20034;-60
2023/02/13 10:32:08;;;;;;;73.13;51.53;;;14.50;91.80;;;;;;5134587;27;20076;-48
2023/02/13 10:34:43;;;;;;;116.55;83.65;;;15.20;91.80;;;;;;5134346;27;20030;-49
2023/02/13 10:37:16;;;;;;;30.05;26.58;;;15.50;91.40;;;;;;5134127;27;20015;-49
2023/02/13 10:39:45;;;;;;;38.97;29.55;;;16.50;91.00;;;;;;5133958;27;20022;-48
2023/02/13 10:42:29;;;;;;;37.08;27.08;;;18.00;90.00;;;;;;5134106;27;20099;-46
2023/02/13 10:45:23;;;;;;;27.98;21.92;;;19.00;88.20;;;;;;5114651;27;20394;-51
2023/02/13 10:47:55;;;;;;;27.90;19.80;;;19.10;85.30;;;;;;5114544;27;20067;-50
2023/02/13 10:51:14;;;;;;;31.08;23.90;;;19.90;85.00;;;;;;5114388;27;20759;-50
2023/02/13 10:53:43;;;;;;;27.05;21.92;;;20.30;85.50;;;;;;5036835;28;20028;-52
2023/02/13 10:56:17;;;;;;;27.92;22.80;;;19.70;84.80;;;;;;5070100;28;20048;-52
2023/02/13 10:58:58;;;;;;;23.95;20.27;;;19.20;84.40;;;;;;5070153;28;20106;-52
2023/02/13 11:01:44;;;;;;;35.50;28.13;;;20.70;90.70;;;;;;5069982;28;20033;-52
2023/02/13 11:04:13;;;;;;;26.15;20.65;;;21.20;83.40;;;;;;5019991;28;20044;-52
2023/02/13 11:06:55;;;;;;;23.73;20.15;;;21.70;81.90;;;;;;5069878;28;20024;-52
2023/02/13 11:09:21;;;;;;;25.87;20.60;;;21.90;81.50;;;;;;5069805;28;20036;-52
2023/02/13 11:11:47;;;;;;;24.63;20.70;;;;;;;;;;5082594;28;20029;-50
2023/02/13 11:14:21;;;;;;;22.50;19.98;;;21.60;82.60;;;;;;5057184;28;20039;-50
2023/02/13 11:16:53;;;;;;;24.13;19.98;;;;;;;;;;5078424;28;20488;-50
2023/02/13 11:19:28;;;;;;;38.35;21.25;;;;;;;;;;5030141;28;20044;-49
2023/02/13 11:22:14;;;;;;;24.25;18.83;;;22.50;94.80;;;;;;5030879;28;20040;-50
2023/02/13 11:24:55;;;;;;;20.60;18.10;;;22.40;79.30;;;;;;5089828;28;20089;-50
2023/02/13 11:27:30;;;;;;;23.00;18.92;;;21.60;79.00;;;;;;5068989;27;20027;-49
2023/02/13 11:30:20;;;;;;;21.88;18.90;;;21.40;79.70;;;;;;5110581;27;20039;-49
2023/02/13 11:32:55;;;;;;;23.35;19.17;;;;;;;;;;5145432;27;20093;-49
2023/02/13 11:35:30;;;;;;;25.88;20.20;;;21.70;93.60;;;;;;5096879;28;20085;-51
2023/02/13 11:38:23;;;;;;;34.03;19.83;;;21.30;79.60;;;;;;5078999;28;20031;-50
2023/02/13 11:40:52;;;;;;;23.17;19.40;;;22.00;78.40;;;;;;5037712;28;20161;-50
2023/02/13 11:43:43;;;;;;;24.20;20.58;;;21.00;78.40;;;;;;5089858;28;20058;-50
2023/02/13 11:46:19;;;;;;;23.98;20.77;;;21.60;79.80;;;;;;5075452;28;20044;-50
2023/02/13 11:49:00;;;;;;;24.55;18.83;;;21.80;78.90;;;;;;5102752;28;20417;-50
2023/02/13 11:51:44;;;;;;;29.65;19.83;;;22.00;77.90;;;;;;5064992;28;20043;-50
2023/02/13 11:54:28;;;;;;;22.98;20.08;;;21.70;79.30;;;;;;5107305;28;20028;-50
2023/02/13 11:56:58;;;;;;;21.30;17.75;;;21.90;79.80;;;;;;5110195;28;20115;-50
2023/02/13 11:59:26;;;;;;;25.20;18.52;;;21.90;78.20;;;;;;5075809;28;20051;-49
2023/02/13 12:02:12;;;;;;;15.43;13.50;;;;;;;;;;5109856;28;20039;-50
2023/02/13 12:04:38;;;;;;;18.77;15.07;;;;;;;;;;5109832;28;20410;-50
2023/02/13 12:07:29;;;;;;;21.58;16.55;;;20.30;78.10;;;;;;5144869;27;20035;-50
2023/02/13 12:10:20;;;;;;;22.05;16.38;;;20.20;79.80;;;;;;5116981;27;20049;-49
2023/02/13 12:12:58;;;;;;;21.60;17.55;;;20.90;80.20;;;;;;5152928;27;20070;-50
2023/02/13 12:15:26;;;;;;;15.27;12.38;;;21.20;78.10;;;;;;5133887;27;20489;-50
2023/02/13 12:18:07;;;;;;;22.70;16.52;;;;;;;;;;5153399;27;20030;-50
2023/02/13 12:20:40;;;;;;;22.90;15.65;;;20.30;78.40;;;;;;5153597;27;20160;-50
2023/02/13 12:23:31;;;;;;;16.52;14.27;;;20.60;78.60;;;;;;5153395;27;20051;-50
2023/02/13 12:26:01;;;;;;;16.13;14.10;;;20.50;78.50;;;;;;5153569;27;20030;-49
2023/02/13 12:28:37;;;;;;;16.15;13.70;;;20.30;78.50;;;;;;5153021;27;20034;-50
2023/02/13 12:31:42;;;;;;;16.90;13.40;;;20.00;79.10;;;;;;5133828;27;20073;-50
2023/02/13 12:34:22;;;;;;;18.88;15.00;;;19.70;78.60;;;;;;5128909;27;20031;-50
2023/02/13 12:37:15;;;;;;;41.17;15.27;;;20.00;79.40;;;;;;5156980;27;20023;-50
2023/02/13 12:39:44;;;;;;;;;;;19.80;79.20;;;;;;5157575;27;20492;-50
2023/02/13 12:42:35;;;;;;;16.27;13.25;;;19.30;79.80;;;;;;5157058;27;19902;-50
2023/02/13 12:45:38;;;;;;;16.33;14.30;;;19.00;80.00;;;;;;5157055;27;20046;-49
2023/02/13 12:48:17;;;;;;;22.80;11.90;;;19.30;79.70;;;;;;5137238;27;20030;-49
2023/02/13 12:51:08;;;;;;;17.23;10.65;;;18.90;80.90;;;;;;5137446;27;20043;-50
2023/02/13 12:53:41;;;;;;;10.87;9.50;;;19.30;80.50;;;;;;5156778;27;20026;-49
2023/02/13 12:56:34;;;;;;;12.98;10.07;;;18.60;80.30;;;;;;5157261;27;20027;-45
2023/02/13 12:59:07;;;;;;;11.32;8.98;;;18.50;81.30;;;;;;5156723;27;20072;-49
2023/02/13 13:01:58;;;;;;;12.98;9.75;;;17.60;81.40;;;;;;5156488;27;20038;-50
2023/02/13 13:04:49;;;;;;;13.13;10.77;;;16.40;83.00;;;;;;5156681;27;20034;-48
2023/02/13 13:07:23;;;;;;;14.85;12.05;;;16.70;85.80;;;;;;5055177;28;20036;-53
2023/02/13 13:10:07;;;;;;;16.58;13.57;;;16.70;85.80;;;;;;5072338;28;20110;-48
2023/02/13 13:12:49;;;;;;;18.20;12.70;;;16.60;86.40;;;;;;5038783;28;20520;-56
2023/02/13 13:15:34;;;;;;;16.88;13.05;;;15.80;87.60;;;;;;5072113;28;20028;-52
2023/02/13 13:18:18;;;;;;;17.90;14.20;;;16.10;86.90;;;;;;5072480;28;20051;-49
2023/02/13 13:20:56;;;;;;;17.98;14.40;;;16.20;86.30;;;;;;5072313;28;20395;-52
2023/02/13 13:23:34;;;;;;;16.75;12.80;;;16.60;86.70;;;;;;5071873;28;20044;-53
2023/02/13 13:26:17;;;;;;;18.20;12.35;;;16.70;85.20;;;;;;5072053;28;20045;-51
2023/02/13 13:28:48;;;;;;;13.32;11.18;;;17.40;84.90;;;;;;5072062;28;20472;-51
2023/02/13 13:31:15;;;;;;;16.63;11.52;;;17.30;83.20;;;;;;5055292;28;20044;-53
2023/02/13 13:33:45;;;;;;;14.65;10.68;;;17.40;82.50;;;;;;5038466;28;20045;-51
2023/02/13 13:36:32;;;;;;;13.35;11.43;;;17.20;83.80;;;;;;5038592;28;20059;-52
2023/02/13 13:39:16;;;;;;;14.93;10.50;;;17.10;84.40;;;;;;5072055;28;20596;-51
2023/02/13 13:41:54;;;;;;;18.83;11.60;;;16.80;83.60;;;;;;5071905;28;20460;-51
2023/02/13 13:44:21;;;;;;;13.27;11.45;;;16.70;85.30;;;;;;5115855;27;20034;-51
2023/02/13 13:46:55;;;;;;;17.73;10.70;;;16.90;84.40;;;;;;5155990;27;20026;-52
2023/02/13 13:49:36;;;;;;;12.95;10.10;;;16.70;84.90;;;;;;5136036;27;20049;-52
2023/02/13 13:52:19;;;;;;;16.33;11.40;;;16.60;83.90;;;;;;5136298;27;20030;-53
2023/02/13 13:54:50;;;;;;;15.93;13.63;;;16.70;84.90;;;;;;5155859;27;20041;-52
2023/02/13 13:57:18;;;;;;;13.82;11.82;;;16.50;85.60;;;;;;5155848;27;20038;-52
2023/02/13 13:59:50;;;;;;;13.95;11.50;;;16.20;84.90;;;;;;5136044;27;20047;-53
2023/02/13 14:02:16;;;;;;;15.50;10.90;;;16.10;85.10;;;;;;5155977;27;20125;-53
2023/02/13 14:05:16;;;;;;;16.55;11.90;;;15.70;84.70;;;;;;5155815;27;20054;-53
2023/02/13 14:07:42;;;;;;;48.83;37.53;;;16.00;85.00;;;;;;5155310;27;20034;-52
2023/02/13 14:10:20;;;;;;;39.45;29.73;;;15.70;86.00;;;;;;5155837;27;20045;-52